createdAt,value
2017-11-20T00:00:51.367Z,14.00
2017-11-20T00:03:19.591Z,11.40
2017-11-20T00:05:47.790Z,12.03
2017-11-20T00:08:15.976Z,12.23
2017-11-20T00:10:44.181Z,11.93
2017-11-20T00:13:12.376Z,11.20
2017-11-20T00:15:41.344Z,12.40
2017-11-20T00:18:09.531Z,14.57
2017-11-20T00:20:38.481Z,13.30
2017-11-20T00:23:06.753Z,12.77
2017-11-20T00:25:34.946Z,14.10
2017-11-20T00:28:03.140Z,13.20
2017-11-20T00:30:31.321Z,13.50
2017-11-20T00:32:59.532Z,12.57
2017-11-20T00:35:27.725Z,12.80
2017-11-20T00:37:55.919Z,13.87
2017-11-20T00:40:24.131Z,13.83
2017-11-20T00:42:53.102Z,14.53
2017-11-20T00:45:21.291Z,14.03
2017-11-20T00:47:49.500Z,13.67
2017-11-20T00:50:17.709Z,14.03
2017-11-20T00:52:45.889Z,13.87
2017-11-20T00:55:14.079Z,14.40
2017-11-20T00:57:42.254Z,12.63
2017-11-20T01:00:10.503Z,12.93
2017-11-20T01:02:38.693Z,12.67
2017-11-20T01:05:06.866Z,12.50
2017-11-20T01:07:35.047Z,12.70
2017-11-20T01:10:03.248Z,11.50
2017-11-20T01:12:32.212Z,11.27
2017-11-20T01:15:00.418Z,11.80
2017-11-20T01:17:29.393Z,12.70
2017-11-20T01:19:57.597Z,14.03
2017-11-20T01:22:25.782Z,12.27
2017-11-20T01:24:53.997Z,11.27
2017-11-20T01:27:22.183Z,14.20
2017-11-20T01:29:50.374Z,10.80
2017-11-20T01:32:18.576Z,13.13
2017-11-20T01:34:46.785Z,14.20
2017-11-20T01:37:14.993Z,10.03
2017-11-20T01:39:43.226Z,10.40
2017-11-20T01:42:11.429Z,10.47
2017-11-20T01:44:39.609Z,10.43
2017-11-20T01:47:07.816Z,9.90
2017-11-20T01:49:36.756Z,9.43
2017-11-20T01:52:04.996Z,11.07
2017-11-20T01:54:33.195Z,9.70
2017-11-20T01:57:01.399Z,10.40
2017-11-20T01:59:29.614Z,9.70
2017-11-20T02:01:58.581Z,10.13
2017-11-20T02:04:26.782Z,10.30
2017-11-20T02:06:55.719Z,10.73
2017-11-20T02:09:23.920Z,9.40
2017-11-20T02:11:52.104Z,9.03
2017-11-20T02:14:20.285Z,12.70
2017-11-20T02:16:48.513Z,11.50
2017-11-20T02:19:16.698Z,12.17
2017-11-20T02:21:44.899Z,13.60
2017-11-20T02:24:13.079Z,12.57
2017-11-20T02:26:41.284Z,12.83
2017-11-20T02:29:09.495Z,12.48
2017-11-20T02:31:37.705Z,11.90
2017-11-20T02:34:05.905Z,10.93
2017-11-20T02:36:34.095Z,10.88
2017-11-20T02:39:02.334Z,9.90
2017-11-20T02:41:30.520Z,12.07
2017-11-20T02:43:59.495Z,8.33
2017-11-20T02:46:27.743Z,9.63
2017-11-20T02:48:55.951Z,9.53
2017-11-20T02:51:24.965Z,9.07
2017-11-20T02:53:53.916Z,11.60
2017-11-20T02:56:22.100Z,8.30
2017-11-20T02:58:50.279Z,9.20
2017-11-20T03:01:18.475Z,8.80
2017-11-20T03:03:47.438Z,6.57
2017-11-20T03:06:15.602Z,9.27
2017-11-20T03:08:43.864Z,8.50
2017-11-20T03:11:12.069Z,12.80
2017-11-20T03:13:40.269Z,13.90
2017-11-20T03:16:09.235Z,14.00
2017-11-20T03:18:37.403Z,13.77
2017-11-20T03:21:05.609Z,15.00
2017-11-20T03:23:34.567Z,15.27
2017-11-20T03:26:02.750Z,13.30
2017-11-20T03:28:30.951Z,14.52
2017-11-20T03:30:59.907Z,15.23
2017-11-20T03:33:28.092Z,14.60
2017-11-20T03:35:56.271Z,13.00
2017-11-20T03:38:24.468Z,13.50
2017-11-20T03:40:53.454Z,12.33
2017-11-20T03:43:21.704Z,13.90
2017-11-20T03:45:49.945Z,12.23
2017-11-20T03:48:18.157Z,10.70
2017-11-20T03:50:46.346Z,10.70
2017-11-20T03:53:14.554Z,4.97
2017-11-20T03:55:43.552Z,4.00
2017-11-20T03:58:11.748Z,3.17
2017-11-20T04:00:39.950Z,3.10
2017-11-20T04:03:08.135Z,1.70
2017-11-20T04:05:36.344Z,2.40
2017-11-20T04:08:05.334Z,0.70
2017-11-20T04:10:34.284Z,0.63
2017-11-20T04:13:02.465Z,0.50
2017-11-20T04:15:30.661Z,0.37
2017-11-20T04:17:59.639Z,0.50
2017-11-20T04:20:27.835Z,0.80
2017-11-20T04:22:56.008Z,0.40
2017-11-20T04:25:24.956Z,0.47
2017-11-20T04:27:53.161Z,0.60
2017-11-20T04:30:21.488Z,0.40
2017-11-20T04:32:49.783Z,0.30
2017-11-20T04:35:17.984Z,0.30
2017-11-20T04:37:46.185Z,0.40
2017-11-20T04:40:15.257Z,0.40
2017-11-20T04:42:43.417Z,0.50
2017-11-20T04:45:11.610Z,0.40
2017-11-20T04:47:39.776Z,0.50
2017-11-20T04:50:07.950Z,0.40
2017-11-20T04:52:36.180Z,0.40
2017-11-20T04:55:04.459Z,0.97
2017-11-20T04:57:32.683Z,0.60
2017-11-20T05:00:00.895Z,0.50
2017-11-20T05:02:29.849Z,0.70
2017-11-20T05:04:58.008Z,0.60
2017-11-20T05:07:26.179Z,1.20
2017-11-20T05:09:54.358Z,0.40
2017-11-20T05:12:22.540Z,0.47
2017-11-20T05:14:50.731Z,0.77
2017-11-20T05:17:18.916Z,0.50
2017-11-20T05:19:47.106Z,0.40
2017-11-20T05:22:16.044Z,0.77
2017-11-20T05:24:44.260Z,0.40
2017-11-20T05:27:12.465Z,0.40
2017-11-20T05:29:40.636Z,0.40
2017-11-20T05:32:08.803Z,0.83
2017-11-20T05:34:37.749Z,0.40
2017-11-20T05:37:05.922Z,0.47
2017-11-20T05:39:34.375Z,0.30
2017-11-20T05:42:02.564Z,0.70
2017-11-20T05:44:30.744Z,0.80
2017-11-20T05:46:58.912Z,0.60
2017-11-20T05:49:27.077Z,0.50
2017-11-20T05:51:55.256Z,0.40
2017-11-20T05:54:23.402Z,0.70
2017-11-20T05:56:51.568Z,1.13
2017-11-20T05:59:20.520Z,0.50
2017-11-20T06:01:48.674Z,0.60
2017-11-20T06:04:16.853Z,0.60
2017-11-20T06:06:45.061Z,0.60
2017-11-20T06:09:13.251Z,0.90
2017-11-20T06:11:42.200Z,1.00
2017-11-20T06:14:10.373Z,0.60
2017-11-20T06:16:38.536Z,0.73
2017-11-20T06:19:06.733Z,0.60
2017-11-20T06:21:34.910Z,0.70
2017-11-20T06:24:03.079Z,0.60
2017-11-20T06:26:31.255Z,0.80
2017-11-20T06:28:59.419Z,1.03
2017-11-20T06:31:27.583Z,0.90
2017-11-20T06:33:55.775Z,0.57
2017-11-20T06:36:24.783Z,0.90
2017-11-20T06:38:52.974Z,0.50
2017-11-20T06:41:21.169Z,0.70
2017-11-20T06:43:50.232Z,0.70
2017-11-20T06:46:18.543Z,0.67
2017-11-20T06:48:47.484Z,0.77
2017-11-20T06:51:15.675Z,0.50
2017-11-20T06:53:43.855Z,0.40
2017-11-20T08:18:09.707Z,7.47
2017-11-20T08:20:37.864Z,2.30
2017-11-20T08:23:06.039Z,0.53
2017-11-20T08:25:34.196Z,0.60
2017-11-20T08:28:02.373Z,0.80
2017-11-20T08:30:30.553Z,0.80
2017-11-20T08:32:58.712Z,0.47
2017-11-20T08:35:27.682Z,2.37
2017-11-20T08:37:55.861Z,1.77
2017-11-20T08:40:24.039Z,1.60
2017-11-20T08:42:52.206Z,1.10
2017-11-20T08:45:20.380Z,4.83
2017-11-20T08:47:48.554Z,3.90
2017-11-20T08:50:16.730Z,1.73
2017-11-20T08:52:44.901Z,1.93
2017-11-20T08:55:13.052Z,2.50
2017-11-20T08:57:41.237Z,1.27
2017-11-20T09:00:09.435Z,1.63
2017-11-20T09:02:37.632Z,1.73
2017-11-20T09:05:05.834Z,1.90
2017-11-20T09:07:33.992Z,1.23
2017-11-20T09:10:02.152Z,1.00
2017-11-20T09:12:31.197Z,1.17
2017-11-20T09:14:59.407Z,1.13
2017-11-20T09:17:27.563Z,0.83
2017-11-20T09:19:55.737Z,0.60
2017-11-20T09:22:23.903Z,0.63
2017-11-20T09:24:52.101Z,1.00
2017-11-20T09:27:20.271Z,0.67
2017-11-20T09:29:48.452Z,0.77
2017-11-20T09:32:16.618Z,0.97
2017-11-20T09:34:44.793Z,2.97
2017-11-20T09:37:12.973Z,0.60
2017-11-20T09:39:41.145Z,0.70
2017-11-20T09:42:10.095Z,1.47
2017-11-20T09:44:38.280Z,0.83
2017-11-20T09:47:06.443Z,0.87
2017-11-20T09:49:34.604Z,0.60
2017-11-20T09:52:02.792Z,0.73
2017-11-20T09:54:31.071Z,1.20
2017-11-20T09:56:59.235Z,1.10
2017-11-20T09:59:27.404Z,2.50
2017-11-20T10:01:55.569Z,2.27
2017-11-20T10:04:23.800Z,0.80
2017-11-20T10:06:51.972Z,0.63
2017-11-20T10:09:20.137Z,3.73
2017-11-20T10:11:48.340Z,2.70
2017-11-20T10:14:17.295Z,2.20
2017-11-20T10:16:45.458Z,3.30
2017-11-20T10:19:13.629Z,1.70
2017-11-20T10:21:41.808Z,2.70
2017-11-20T10:24:10.105Z,1.30
2017-11-20T10:26:38.773Z,0.90
2017-11-20T10:29:07.177Z,1.40
2017-11-20T10:31:35.351Z,1.40
2017-11-20T10:34:03.528Z,2.30
2017-11-20T10:36:31.720Z,0.90
2017-11-20T10:38:59.896Z,1.13
2017-11-20T10:41:28.090Z,0.80
2017-11-20T10:43:57.015Z,0.60
2017-11-20T10:46:25.293Z,0.50
2017-11-20T10:48:53.467Z,0.60
2017-11-20T10:51:21.626Z,1.10
2017-11-20T10:53:49.795Z,1.13
2017-11-20T10:56:17.972Z,0.60
2017-11-20T10:58:46.170Z,1.27
2017-11-20T11:01:14.334Z,1.50
2017-11-20T11:03:43.414Z,1.20
2017-11-20T11:06:11.583Z,1.90
2017-11-20T11:08:39.992Z,1.03
2017-11-20T11:11:08.169Z,1.47
2017-11-20T11:13:36.349Z,2.57
2017-11-20T11:16:04.598Z,1.10
2017-11-20T11:18:32.764Z,1.07
2017-11-20T11:21:01.709Z,1.13
2017-11-20T11:23:29.881Z,1.00
2017-11-20T11:25:58.089Z,1.03
2017-11-20T11:28:27.032Z,1.00
2017-11-20T11:30:55.210Z,1.90
2017-11-20T11:33:23.382Z,1.53
2017-11-20T11:35:51.559Z,0.93
2017-11-20T11:38:19.755Z,1.50
2017-11-20T11:40:47.928Z,1.70
2017-11-20T11:43:16.124Z,2.67
2017-11-20T11:45:45.066Z,1.20
2017-11-20T11:48:13.261Z,0.60
2017-11-20T11:50:41.439Z,0.80
2017-11-20T11:53:09.603Z,0.93
2017-11-20T11:55:37.841Z,0.87
2017-11-20T11:58:06.019Z,0.77
2017-11-20T12:00:34.212Z,0.63
2017-11-20T12:03:02.387Z,0.97
2017-11-20T12:05:30.575Z,1.30
2017-11-20T12:07:58.739Z,1.00
2017-11-20T12:10:26.908Z,1.33
2017-11-20T12:12:55.086Z,1.00
2017-11-20T12:15:23.256Z,0.80
2017-11-20T12:17:51.417Z,0.80
2017-11-20T12:20:19.734Z,0.80
2017-11-20T12:22:48.686Z,0.60
2017-11-20T12:25:17.046Z,0.60
2017-11-20T12:27:45.991Z,0.83
2017-11-20T12:30:14.164Z,0.90
2017-11-20T12:32:42.345Z,0.83
2017-11-20T12:35:10.512Z,0.83
2017-11-20T12:37:38.743Z,1.03
2017-11-20T12:40:07.683Z,0.60
2017-11-20T12:42:35.843Z,0.97
2017-11-20T12:45:04.005Z,0.90
2017-11-20T12:47:32.164Z,0.93
2017-11-20T12:50:01.107Z,0.90
2017-11-20T12:52:30.049Z,0.70
2017-11-20T12:54:58.223Z,1.00
2017-11-20T12:57:27.164Z,1.17
2017-11-20T12:59:55.330Z,1.10
2017-11-20T13:02:23.561Z,1.17
2017-11-20T13:04:52.495Z,0.80
2017-11-20T13:07:20.686Z,0.63
2017-11-20T13:09:48.883Z,0.63
2017-11-20T13:12:17.245Z,0.80
2017-11-20T13:14:45.516Z,3.10
2017-11-20T13:17:13.879Z,1.57
2017-11-20T13:19:42.136Z,2.10
2017-11-20T13:22:10.487Z,1.23
2017-11-20T13:24:39.684Z,2.27
2017-11-20T13:27:08.696Z,2.30
2017-11-20T13:29:36.911Z,1.23
2017-11-20T13:32:05.349Z,2.17
2017-11-20T13:34:33.599Z,3.40
2017-11-20T13:37:01.986Z,1.33
2017-11-20T13:39:31.006Z,2.43
2017-11-20T13:42:01.123Z,1.50
2017-11-20T13:44:29.404Z,1.53
2017-11-20T13:46:57.670Z,1.53
2017-11-20T13:49:26.703Z,1.60
2017-11-20T13:51:55.820Z,1.30
2017-11-20T13:54:24.021Z,1.10
2017-11-20T13:56:53.005Z,2.40
2017-11-20T13:59:21.181Z,1.70
2017-11-20T14:01:50.271Z,2.37
2017-11-20T14:04:18.541Z,3.50
2017-11-20T14:06:46.775Z,1.90
2017-11-20T14:09:15.041Z,1.80
2017-11-20T14:11:43.214Z,1.30
2017-11-20T14:14:11.436Z,1.10
2017-11-20T14:16:39.720Z,0.97
2017-11-20T14:19:07.907Z,0.90
2017-11-20T14:21:36.101Z,1.90
2017-11-20T14:24:05.080Z,0.80
2017-11-20T14:26:34.077Z,1.07
2017-11-20T14:29:03.016Z,1.37
2017-11-20T14:31:31.187Z,1.40
2017-11-20T14:33:59.484Z,1.37
2017-11-20T14:36:27.717Z,1.03
2017-11-20T14:38:55.919Z,1.00
2017-11-20T14:41:24.178Z,0.90
2017-11-20T14:43:52.689Z,1.10
2017-11-20T14:46:20.977Z,0.97
2017-11-20T14:48:50.979Z,1.20
2017-11-20T14:51:40.669Z,1.10
2017-11-20T14:54:16.838Z,1.00
2017-11-20T14:56:45.182Z,1.40
2017-11-20T14:59:13.438Z,1.07
2017-11-20T15:01:48.092Z,1.20
2017-11-20T15:04:16.526Z,1.50
2017-11-20T15:06:45.695Z,2.33
2017-11-20T15:09:13.952Z,1.67
2017-11-20T15:11:42.344Z,1.57
2017-11-20T15:14:10.734Z,1.43
2017-11-20T15:16:38.994Z,1.67
2017-11-20T15:19:07.257Z,2.10
2017-11-20T15:21:35.636Z,1.63
2017-11-20T15:24:03.839Z,1.80
2017-11-20T15:26:32.052Z,1.50
2017-11-20T15:29:01.031Z,1.47
2017-11-20T15:31:29.223Z,1.70
2017-11-20T15:33:58.173Z,1.70
2017-11-20T15:36:26.526Z,2.00
2017-11-20T15:38:54.745Z,1.93
2017-11-20T15:41:22.915Z,2.30
2017-11-20T15:43:51.144Z,2.20
2017-11-20T15:46:19.407Z,2.10
2017-11-20T15:48:47.562Z,2.07
2017-11-20T15:51:15.729Z,2.03
2017-11-20T15:53:44.709Z,1.30
2017-11-20T15:56:12.898Z,2.50
2017-11-20T15:58:41.835Z,3.07
2017-11-20T16:01:10.027Z,3.40
2017-11-20T16:03:38.208Z,4.70
2017-11-20T16:06:06.408Z,19.80
2017-11-20T16:08:34.599Z,29.80
2017-11-20T16:11:03.560Z,65.77
2017-11-20T16:13:33.388Z,48.27
2017-11-20T16:16:01.634Z,19.73
2017-11-20T16:18:29.797Z,11.53
2017-11-20T16:20:57.987Z,3.60
2017-11-20T16:23:26.179Z,16.10
2017-11-20T16:25:54.403Z,21.67
2017-11-20T16:28:22.574Z,10.53
2017-11-20T16:30:50.822Z,8.40
2017-11-20T16:33:19.835Z,9.30
2017-11-20T16:35:48.764Z,7.30
2017-11-20T16:38:16.931Z,9.03
2017-11-20T16:40:45.092Z,7.87
2017-11-20T16:43:13.270Z,8.40
2017-11-20T16:45:41.516Z,4.60
2017-11-20T16:48:10.447Z,6.60
2017-11-20T16:50:38.623Z,5.23
2017-11-20T16:53:06.805Z,4.50
2017-11-20T16:55:35.025Z,4.97
2017-11-20T16:58:21.981Z,4.47
2017-11-20T17:00:50.244Z,5.03
2017-11-20T17:03:25.939Z,3.67
2017-11-20T17:05:54.231Z,4.67
2017-11-20T17:08:22.407Z,6.27
2017-11-20T17:10:50.606Z,5.93
2017-11-20T17:13:19.548Z,8.67
2017-11-20T17:15:47.718Z,5.90
2017-11-20T17:18:15.907Z,4.57
2017-11-20T17:20:44.100Z,5.63
2017-11-20T17:23:12.256Z,6.57
2017-11-20T17:25:40.487Z,8.10
2017-11-20T17:28:08.658Z,4.97
2017-11-20T17:30:36.844Z,5.90
2017-11-20T17:33:05.049Z,6.37
2017-11-20T17:35:33.245Z,5.67
2017-11-20T17:38:01.432Z,5.50
2017-11-20T17:40:30.375Z,6.90
2017-11-20T17:42:58.594Z,6.90
2017-11-20T17:45:26.823Z,2.80
2017-11-20T17:47:54.974Z,3.33
2017-11-20T17:50:23.920Z,2.87
2017-11-20T17:52:52.087Z,3.50
2017-11-20T17:55:20.301Z,3.83
2017-11-20T17:57:49.249Z,2.83
2017-11-20T18:00:17.423Z,3.60
2017-11-20T18:02:45.601Z,6.90
2017-11-20T18:05:13.777Z,9.03
2017-11-20T18:07:41.965Z,18.10
2017-11-20T18:10:10.198Z,24.67
2017-11-20T18:12:38.411Z,18.53
2017-11-20T18:15:06.646Z,5.20
2017-11-20T18:17:34.818Z,4.97
2017-11-20T18:20:03.012Z,3.80
2017-11-20T18:22:31.177Z,2.60
2017-11-20T18:24:59.365Z,4.80
2017-11-20T18:27:27.596Z,9.27
2017-11-20T18:29:56.550Z,4.70
2017-11-20T18:32:24.758Z,4.37
2017-11-20T18:34:53.711Z,4.50
2017-11-20T18:37:21.885Z,3.90
2017-11-20T18:39:50.081Z,4.57
2017-11-20T18:42:18.341Z,4.60
2017-11-20T18:44:46.534Z,5.70
2017-11-20T18:47:14.755Z,5.87
2017-11-20T18:49:42.939Z,5.17
2017-11-20T18:52:11.123Z,4.60
2017-11-20T18:54:39.362Z,3.97
2017-11-20T18:57:08.326Z,4.37
2017-11-20T18:59:36.528Z,4.30
2017-11-20T19:02:23.256Z,5.37
2017-11-20T19:08:10.153Z,4.80
2017-11-20T19:10:38.313Z,5.10
2017-11-20T19:13:06.491Z,5.20
2017-11-20T19:15:34.702Z,4.67
2017-11-20T19:18:03.666Z,5.30
2017-11-20T19:20:31.849Z,4.50
2017-11-20T19:23:00.036Z,4.53
2017-11-20T19:25:28.992Z,4.63
2017-11-20T19:27:57.192Z,5.47
2017-11-20T19:30:25.437Z,9.80
2017-11-20T19:32:53.679Z,17.37
2017-11-20T19:35:21.855Z,7.43
2017-11-20T19:37:50.082Z,8.73
2017-11-20T19:40:18.373Z,13.40
2017-11-20T19:42:47.377Z,7.13
2017-11-20T19:45:16.372Z,7.57
2017-11-20T19:47:45.325Z,13.10
2017-11-20T19:50:13.545Z,11.40
2017-11-20T19:52:42.512Z,7.87
2017-11-20T19:55:10.691Z,19.70
2017-11-20T19:57:38.905Z,12.60
2017-11-20T20:00:07.092Z,10.53
2017-11-20T20:02:35.295Z,14.07
2017-11-20T20:05:03.484Z,35.33
2017-11-20T20:07:31.696Z,35.43
2017-11-20T20:09:59.907Z,20.33
2017-11-20T20:12:28.108Z,15.67
2017-11-20T20:15:14.490Z,10.43
2017-11-20T20:17:42.699Z,13.23
2017-11-20T20:20:11.658Z,11.40
2017-11-20T20:22:39.855Z,13.77
2017-11-20T20:25:08.051Z,10.10
2017-11-20T20:27:37.014Z,10.83
2017-11-20T20:30:05.329Z,11.10
2017-11-20T20:32:34.293Z,9.10
2017-11-20T20:35:02.492Z,9.10
2017-11-20T20:37:31.512Z,7.80
2017-11-20T20:39:59.714Z,7.33
2017-11-20T20:42:27.949Z,6.90
2017-11-20T20:44:56.185Z,7.07
2017-11-20T20:47:24.370Z,6.27
2017-11-20T20:49:52.599Z,6.13
2017-11-20T20:52:20.809Z,5.63
2017-11-20T20:54:49.018Z,8.93
2017-11-20T20:57:18.021Z,11.70
2017-11-20T20:59:46.199Z,12.60
2017-11-20T21:02:14.382Z,16.63
2017-11-20T21:04:42.590Z,8.90
2017-11-20T21:07:10.833Z,9.33
2017-11-20T21:09:44.659Z,6.50
2017-11-20T21:12:18.777Z,7.17
2017-11-20T21:14:47.013Z,9.53
2017-11-20T21:17:15.281Z,8.13
2017-11-20T21:19:44.279Z,5.80
2017-11-20T21:22:13.225Z,4.90
2017-11-20T21:24:41.398Z,4.50
2017-11-20T21:27:09.620Z,4.80
2017-11-20T21:29:38.559Z,6.03
2017-11-20T21:32:06.801Z,5.73
2017-11-20T21:34:34.983Z,6.90
2017-11-20T21:37:03.220Z,6.10
2017-11-20T21:39:31.429Z,6.13
2017-11-20T21:41:59.647Z,7.10
2017-11-20T21:44:27.938Z,6.23
2017-11-20T21:46:56.924Z,5.70
2017-11-20T21:49:25.141Z,7.40
2017-11-20T21:51:53.341Z,7.17
2017-11-20T21:54:21.560Z,6.50
2017-11-20T21:56:49.768Z,4.97
2017-11-20T21:59:18.729Z,4.60
2017-11-20T22:01:46.958Z,4.83
2017-11-20T22:04:15.140Z,4.50
2017-11-20T22:06:43.335Z,4.60
2017-11-20T22:09:11.581Z,5.00
2017-11-20T22:11:39.858Z,4.30
2017-11-20T22:14:08.046Z,3.90
2017-11-20T22:16:36.251Z,5.10
2017-11-20T22:19:04.459Z,4.30
2017-11-20T22:21:33.450Z,5.03
2017-11-20T22:24:02.429Z,4.70
2017-11-20T22:26:30.626Z,4.60
2017-11-20T22:28:58.834Z,14.20
2017-11-20T22:31:27.041Z,10.07
2017-11-20T22:33:55.315Z,9.03
2017-11-20T22:36:23.532Z,7.80
2017-11-20T22:38:51.737Z,6.10
2017-11-20T22:41:19.907Z,6.53
2017-11-20T22:43:48.115Z,5.00
2017-11-20T22:46:16.334Z,5.37
2017-11-20T22:48:44.513Z,7.43
2017-11-20T22:51:12.704Z,6.43
2017-11-20T22:53:40.951Z,6.40
2017-11-20T22:56:09.199Z,7.17
2017-11-20T22:58:37.390Z,5.87
2017-11-20T23:01:06.339Z,4.70
2017-11-20T23:03:34.521Z,4.37
2017-11-20T23:06:02.749Z,3.60
2017-11-20T23:08:31.710Z,4.57
2017-11-20T23:10:59.957Z,4.10
2017-11-20T23:13:28.151Z,4.10
2017-11-20T23:15:56.351Z,4.20
2017-11-20T23:18:25.311Z,4.10
2017-11-20T23:20:54.258Z,4.17
2017-11-20T23:23:22.444Z,5.10
2017-11-20T23:25:50.605Z,3.87
2017-11-20T23:28:18.780Z,3.97
2017-11-20T23:30:46.982Z,5.30
2017-11-20T23:33:15.161Z,4.60
2017-11-20T23:35:43.342Z,3.50
2017-11-20T23:38:11.536Z,4.43
2017-11-20T23:40:39.715Z,4.10
2017-11-20T23:43:07.931Z,5.33
2017-11-20T23:45:36.109Z,4.37
2017-11-20T23:48:04.340Z,3.90
2017-11-20T23:50:32.530Z,4.67
2017-11-20T23:53:01.501Z,3.80
2017-11-20T23:55:29.691Z,3.80
2017-11-20T23:57:57.872Z,3.97
